Time;durP1;ratioP1;P1;durP2;ratioP2;P2;SDS_P1;SDS_P2;PMS_P1;PMS_P2;Temp;Humidity;BMP_temperature;BMP_pressure;BME280_temperature;BME280_humidity;BME280_pressure;Samples;Min_cycle;Max_cycle;Signal;HPM_P1;HPM_P2
2023/03/28 00:00:49;;;;;;;2.05;0.90;;;6.30;62.70;;;;;;4994943;28;20431;-73
2023/03/28 00:03:17;;;;;;;1.00;0.80;;;6.30;62.60;;;;;;4994777;28;20022;-73
2023/03/28 00:05:47;;;;;;;1.48;0.70;;;6.30;62.50;;;;;;4994878;28;20022;-73
2023/03/28 00:08:15;;;;;;;2.20;1.10;;;6.30;62.30;;;;;;4994639;28;20026;-73
2023/03/28 00:10:41;;;;;;;0.57;0.57;;;6.30;62.00;;;;;;4994770;28;20109;-73
2023/03/28 00:13:07;;;;;;;0.57;0.50;;;6.30;62.00;;;;;;4994640;28;20023;-73
2023/03/28 00:15:36;;;;;;;1.15;0.63;;;6.20;61.70;;;;;;4977079;28;20037;-73
2023/03/28 00:18:04;;;;;;;1.23;0.60;;;6.20;61.70;;;;;;4994562;28;20026;-73
2023/03/28 00:20:30;;;;;;;1.17;0.80;;;6.10;61.60;;;;;;4994177;28;20032;-73
2023/03/28 00:22:57;;;;;;;2.85;0.80;;;6.10;61.60;;;;;;4976888;28;20395;-73
2023/03/28 00:25:23;;;;;;;0.80;0.55;;;6.00;61.70;;;;;;4994410;28;20031;-75
2023/03/28 00:27:49;;;;;;;1.52;0.60;;;5.90;61.70;;;;;;4994408;28;20027;-73
2023/03/28 00:30:15;;;;;;;1.60;0.75;;;5.90;61.80;;;;;;4994346;28;20030;-73
2023/03/28 00:32:41;;;;;;;1.00;0.68;;;5.90;61.90;;;;;;4994291;28;20030;-73
2023/03/28 00:35:08;;;;;;;0.80;0.60;;;5.80;61.80;;;;;;4993290;28;20049;-73
2023/03/28 00:37:34;;;;;;;3.03;0.50;;;5.80;61.80;;;;;;4976798;28;20027;-73
2023/03/28 00:40:00;;;;;;;1.38;0.52;;;5.70;61.70;;;;;;4994222;28;20028;-73
2023/03/28 00:42:26;;;;;;;1.13;0.55;;;5.70;61.70;;;;;;4994192;28;20490;-73
2023/03/28 00:44:56;;;;;;;0.75;0.50;;;5.70;61.60;;;;;;4994091;28;20022;-73
2023/03/28 00:47:25;;;;;;;0.82;0.52;;;5.60;61.70;;;;;;4994077;28;20053;-73
2023/03/28 00:49:59;;;;;;;1.65;0.50;;;5.70;61.70;;;;;;4993756;28;20030;-73
2023/03/28 00:52:30;;;;;;;1.02;0.50;;;5.60;61.70;;;;;;4993995;28;20019;-73
2023/03/28 00:54:56;;;;;;;2.35;0.75;;;5.60;61.60;;;;;;4994540;28;20425;-73
2023/03/28 00:57:25;;;;;;;0.98;0.60;;;5.60;61.60;;;;;;4993911;28;20026;-73
2023/03/28 00:59:51;;;;;;;2.33;0.85;;;5.60;61.60;;;;;;4993935;28;20026;-73
2023/03/28 01:02:18;;;;;;;2.63;0.60;;;5.50;61.40;;;;;;4993916;28;20018;-73
2023/03/28 01:04:51;;;;;;;1.25;0.80;;;5.50;61.30;;;;;;4993852;28;20065;-73
2023/03/28 01:07:17;;;;;;;2.13;0.70;;;5.60;61.30;;;;;;4976397;28;20022;-73
2023/03/28 01:09:44;;;;;;;1.25;0.70;;;5.50;61.90;;;;;;4972255;28;20055;-73
2023/03/28 01:12:11;;;;;;;2.35;0.80;;;5.50;61.90;;;;;;4974524;28;20023;-74
2023/03/28 01:14:38;;;;;;;1.30;0.70;;;5.50;61.20;;;;;;4957018;28;20027;-73
2023/03/28 01:17:04;;;;;;;0.98;0.70;;;5.50;61.20;;;;;;4974227;28;20019;-73
2023/03/28 01:20:08;;;;;;;2.30;1.38;;;5.50;61.20;;;;;;4974303;28;20027;-73
2023/03/28 01:23:05;;;;;;;1.10;0.80;;;5.40;61.10;;;;;;4963792;28;20043;-73
2023/03/28 01:25:58;;;;;;;1.70;0.80;;;5.40;61.00;;;;;;4974277;28;20098;-73
2023/03/28 01:29:08;;;;;;;1.13;0.88;;;5.50;60.90;;;;;;4956985;28;20433;-73
2023/03/28 01:31:52;;;;;;;1.00;0.63;;;5.50;60.70;;;;;;4938221;28;20395;-73
2023/03/28 01:34:36;;;;;;;2.05;0.82;;;5.50;60.60;;;;;;4980811;28;20496;-73
2023/03/28 01:37:17;;;;;;;;;;;5.50;60.40;;;;;;4993973;28;20026;-73
2023/03/28 01:40:00;;;;;;;4.05;1.00;;;5.50;59.90;;;;;;4993599;28;20001;-73
2023/03/28 01:42:37;;;;;;;2.25;1.25;;;5.50;60.20;;;;;;4993586;28;20472;-73
2023/03/28 01:45:29;;;;;;;1.30;0.80;;;5.50;60.30;;;;;;4993621;28;20029;-73
2023/03/28 01:48:15;;;;;;;2.03;0.95;;;5.40;60.30;;;;;;4983113;28;20031;-73
2023/03/28 01:50:52;;;;;;;1.80;1.15;;;5.40;60.50;;;;;;4996835;28;20084;-73
2023/03/28 01:53:42;;;;;;;1.02;0.70;;;5.40;60.60;;;;;;4996991;28;20026;-73
2023/03/28 01:56:26;;;;;;;1.10;0.90;;;5.40;60.70;;;;;;4997058;28;20033;-73
2023/03/28 01:59:18;;;;;;;0.88;0.68;;;5.40;60.70;;;;;;4997097;28;20015;-73
2023/03/28 02:02:02;;;;;;;1.40;0.70;;;5.40;60.80;;;;;;4997074;28;20022;-73
2023/03/28 02:04:32;;;;;;;0.80;0.80;;;5.40;60.70;;;;;;4997081;28;20510;-73
2023/03/28 02:06:59;;;;;;;5.28;1.08;;;5.40;60.80;;;;;;4997034;28;20057;-73
2023/03/28 02:09:26;;;;;;;1.17;0.90;;;5.30;61.00;;;;;;4996896;28;20492;-73
2023/03/28 02:12:08;;;;;;;1.88;0.98;;;5.30;61.20;;;;;;4997124;28;20424;-73
2023/03/28 02:14:40;;;;;;;2.92;1.17;;;5.30;61.10;;;;;;4996874;28;20033;-73
2023/03/28 02:17:14;;;;;;;1.23;1.00;;;5.30;61.10;;;;;;4996680;28;20029;-73
2023/03/28 02:19:45;;;;;;;1.35;1.10;;;5.40;61.20;;;;;;4979011;28;20391;-73
2023/03/28 02:22:34;;;;;;;2.25;1.33;;;5.40;61.10;;;;;;4977284;28;20084;-73
2023/03/28 02:25:01;;;;;;;2.78;1.40;;;5.50;61.00;;;;;;4959764;28;20421;-73
2023/03/28 02:27:27;;;;;;;1.90;1.20;;;5.50;60.80;;;;;;4959785;28;20027;-73
2023/03/28 02:29:53;;;;;;;2.92;1.52;;;5.50;60.70;;;;;;4976962;28;20480;-73
2023/03/28 02:32:20;;;;;;;1.55;1.10;;;5.50;60.60;;;;;;4977008;28;20041;-73
2023/03/28 02:34:49;;;;;;;2.60;1.55;;;5.50;60.70;;;;;;4976659;28;20179;-73
2023/03/28 02:37:43;;;;;;;1.50;1.17;;;5.50;60.70;;;;;;4976909;28;20031;-73
2023/03/28 02:40:33;;;;;;;3.60;1.75;;;5.50;60.70;;;;;;4959850;28;20431;-73
2023/03/28 02:43:08;;;;;;;1.88;1.30;;;5.50;60.50;;;;;;4976846;28;20102;-73
2023/03/28 02:45:43;;;;;;;1.58;1.17;;;5.50;60.50;;;;;;4976839;28;20048;-73
2023/03/28 02:48:35;;;;;;;1.95;1.15;;;5.50;60.60;;;;;;4984128;28;20101;-73
2023/03/28 02:51:02;;;;;;;3.78;1.70;;;5.50;60.50;;;;;;4958906;28;20391;-73
2023/03/28 02:53:43;;;;;;;4.25;1.60;;;5.50;60.50;;;;;;4996083;28;20026;-73
2023/03/28 02:56:15;;;;;;;5.43;1.70;;;5.40;60.60;;;;;;4995904;28;20018;-73
2023/03/28 02:58:55;;;;;;;4.22;2.05;;;5.50;60.70;;;;;;4995829;28;20495;-72
2023/03/28 03:01:24;;;;;;;2.45;1.75;;;5.40;60.70;;;;;;4978595;28;20031;-73
2023/03/28 03:03:51;;;;;;;3.83;1.90;;;5.50;60.90;;;;;;4995954;28;20018;-72
2023/03/28 03:06:17;;;;;;;4.22;1.60;;;5.40;60.90;;;;;;4995883;28;20023;-73
2023/03/28 03:08:43;;;;;;;2.33;1.63;;;5.50;61.00;;;;;;4995720;28;20030;-73
2023/03/28 03:11:09;;;;;;;3.63;1.67;;;5.50;61.10;;;;;;4980291;28;20038;-73
2023/03/28 03:13:34;;;;;;;4.68;1.40;;;5.60;61.10;;;;;;4976226;28;20022;-73
2023/03/28 03:16:00;;;;;;;3.42;1.85;;;5.60;60.90;;;;;;4958110;28;20027;-73
2023/03/28 03:18:26;;;;;;;2.25;1.50;;;5.70;60.80;;;;;;4975987;28;20089;-73
2023/03/28 03:20:52;;;;;;;4.28;1.88;;;5.70;60.60;;;;;;4988255;28;20435;-73
2023/03/28 03:23:18;;;;;;;3.65;2.00;;;5.80;60.50;;;;;;4995391;28;20467;-73
2023/03/28 03:25:44;;;;;;;2.92;1.85;;;5.80;60.20;;;;;;4977846;28;20046;-73
2023/03/28 03:28:10;;;;;;;3.40;1.77;;;5.90;60.20;;;;;;4977873;28;20105;-73
2023/03/28 03:30:35;;;;;;;3.08;2.05;;;5.90;60.00;;;;;;4977871;28;20041;-73
2023/03/28 03:33:01;;;;;;;2.50;1.85;;;5.90;59.90;;;;;;4977869;28;20034;-73
2023/03/28 03:35:33;;;;;;;2.17;1.52;;;5.90;59.80;;;;;;4994972;28;20042;-73
2023/03/28 03:37:59;;;;;;;3.28;1.98;;;6.00;59.80;;;;;;4995192;28;20072;-73
2023/03/28 03:40:25;;;;;;;4.10;2.15;;;6.00;59.70;;;;;;4995131;28;20022;-73
2023/03/28 03:42:51;;;;;;;3.25;2.10;;;6.00;59.70;;;;;;4995028;28;20065;-73
2023/03/28 03:45:17;;;;;;;3.60;1.92;;;6.00;59.60;;;;;;4977662;28;20050;-73
2023/03/28 03:47:43;;;;;;;2.13;1.70;;;6.00;59.50;;;;;;4994865;28;20172;-73
2023/03/28 03:50:09;;;;;;;3.47;2.05;;;6.10;59.50;;;;;;4977297;28;20034;-73
2023/03/28 03:52:36;;;;;;;4.07;2.30;;;6.10;59.60;;;;;;4994774;28;20033;-74
2023/03/28 03:55:02;;;;;;;4.28;2.35;;;6.10;59.50;;;;;;4994832;28;20038;-73
2023/03/28 03:57:28;;;;;;;7.32;2.67;;;6.20;59.40;;;;;;4994791;28;20023;-73
2023/03/28 03:59:56;;;;;;;4.30;2.60;;;6.20;59.40;;;;;;4994770;28;20383;-73
2023/03/28 04:02:21;;;;;;;4.43;2.85;;;6.10;59.20;;;;;;4977327;28;20030;-73
2023/03/28 04:04:47;;;;;;;5.10;2.45;;;6.20;59.20;;;;;;4994798;28;20534;-73
2023/03/28 04:07:14;;;;;;;4.38;2.80;;;6.10;59.10;;;;;;4994519;28;20037;-73
2023/03/28 04:09:40;;;;;;;5.30;3.08;;;6.00;59.20;;;;;;4976484;28;20022;-73
2023/03/28 04:12:11;;;;;;;9.15;2.92;;;6.00;59.20;;;;;;4994575;28;20033;-73
2023/03/28 04:14:37;;;;;;;6.88;2.38;;;6.00;59.20;;;;;;4977251;28;20458;-73
2023/03/28 04:17:03;;;;;;;5.35;2.40;;;6.00;59.20;;;;;;4994353;28;20106;-73
2023/03/28 04:19:29;;;;;;;5.47;2.60;;;5.90;59.10;;;;;;4994392;28;20022;-73
2023/03/28 04:21:55;;;;;;;7.32;2.78;;;5.90;59.10;;;;;;4993880;28;20015;-73
2023/03/28 04:24:25;;;;;;;9.23;3.70;;;5.80;59.10;;;;;;4994278;28;20053;-73
2023/03/28 04:26:54;;;;;;;6.00;2.67;;;5.80;59.20;;;;;;4994260;28;20030;-73
2023/03/28 04:29:29;;;;;;;6.70;3.05;;;5.80;59.30;;;;;;4991978;28;20033;-73
2023/03/28 04:31:57;;;;;;;5.47;2.53;;;5.70;59.20;;;;;;4994259;28;20045;-73
2023/03/28 04:34:30;;;;;;;6.22;2.47;;;5.70;59.20;;;;;;4994022;28;20446;-73
2023/03/28 04:37:00;;;;;;;4.90;2.75;;;5.80;59.80;;;;;;4976275;28;20042;-73
2023/03/28 04:39:31;;;;;;;9.57;3.20;;;5.70;59.30;;;;;;4994047;28;20023;-73
2023/03/28 04:42:00;;;;;;;4.95;2.47;;;5.70;59.40;;;;;;4994199;28;20462;-73
2023/03/28 04:44:28;;;;;;;4.25;2.55;;;5.70;59.50;;;;;;4993815;28;20072;-73
2023/03/28 04:46:54;;;;;;;3.47;2.10;;;5.70;59.50;;;;;;4976278;28;20549;-73
2023/03/28 04:49:20;;;;;;;6.28;2.30;;;5.70;59.70;;;;;;4993968;28;20518;-73
2023/03/28 04:51:47;;;;;;;4.13;2.05;;;5.70;59.80;;;;;;4993873;28;20026;-73
2023/03/28 04:54:13;;;;;;;8.52;2.70;;;5.70;59.70;;;;;;4993974;28;20030;-73
2023/03/28 04:56:39;;;;;;;8.18;2.60;;;5.80;59.80;;;;;;4993738;28;20041;-74
2023/03/28 04:59:05;;;;;;;2.88;2.00;;;5.80;59.50;;;;;;4993987;28;20018;-74
2023/03/28 05:01:31;;;;;;;3.85;2.00;;;5.80;59.50;;;;;;4976222;28;20422;-74
2023/03/28 05:03:57;;;;;;;5.88;2.80;;;5.90;59.50;;;;;;4993866;28;20033;-74
2023/03/28 05:06:27;;;;;;;5.05;2.70;;;6.00;59.50;;;;;;4993864;28;20022;-74
2023/03/28 05:08:52;;;;;;;6.63;2.30;;;6.00;59.30;;;;;;4976346;28;20035;-74
2023/03/28 05:11:18;;;;;;;4.72;2.33;;;6.10;59.20;;;;;;4993819;28;20018;-74
2023/03/28 05:13:44;;;;;;;9.98;2.20;;;6.10;59.10;;;;;;4993809;28;20105;-74
2023/03/28 05:16:10;;;;;;;5.72;2.42;;;6.10;59.10;;;;;;4993811;28;20110;-73
2023/03/28 05:18:36;;;;;;;5.05;2.85;;;6.20;59.00;;;;;;4993451;28;20035;-73
2023/03/28 05:21:01;;;;;;;4.25;2.15;;;6.20;58.90;;;;;;4992694;28;20034;-73
2023/03/28 05:23:27;;;;;;;4.70;2.85;;;6.20;58.90;;;;;;4997182;28;20100;-73
2023/03/28 05:25:54;;;;;;;6.55;2.97;;;6.30;58.90;;;;;;4980149;28;20438;-73
2023/03/28 05:28:21;;;;;;;6.28;2.88;;;6.30;58.80;;;;;;4997541;28;20034;-73
2023/03/28 05:30:48;;;;;;;3.70;2.63;;;6.30;58.70;;;;;;4997289;28;20542;-73
2023/03/28 05:33:14;;;;;;;6.68;3.78;;;6.30;58.70;;;;;;4997151;28;20101;-73
2023/03/28 05:35:39;;;;;;;8.63;4.35;;;6.30;58.60;;;;;;4979650;28;20061;-73
2023/03/28 05:38:06;;;;;;;6.00;2.83;;;6.40;58.90;;;;;;4996665;28;20058;-73
2023/03/28 05:40:31;;;;;;;7.38;2.83;;;6.40;58.90;;;;;;4979280;28;20431;-73
2023/03/28 05:42:57;;;;;;;3.33;2.70;;;6.50;58.80;;;;;;4997052;28;20080;-73
2023/03/28 05:45:23;;;;;;;3.53;2.53;;;6.50;58.70;;;;;;4996631;28;20026;-73
2023/03/28 05:47:50;;;;;;;7.05;2.92;;;6.60;58.80;;;;;;4996869;28;20114;-73
2023/03/28 05:50:16;;;;;;;5.13;2.47;;;6.60;58.60;;;;;;4979178;28;20022;-72
2023/03/28 05:52:42;;;;;;;6.20;2.63;;;6.70;58.40;;;;;;4997065;28;20097;-73
2023/03/28 05:55:08;;;;;;;6.63;3.30;;;6.80;58.30;;;;;;4996289;28;20113;-73
2023/03/28 05:57:34;;;;;;;8.68;2.70;;;6.80;58.30;;;;;;4978952;28;20097;-73
2023/03/28 06:00:00;;;;;;;5.70;3.15;;;6.90;58.20;;;;;;4996756;28;20018;-74
2023/03/28 06:02:28;;;;;;;4.18;2.63;;;6.90;57.90;;;;;;4979020;28;20125;-72
2023/03/28 06:04:54;;;;;;;7.97;2.97;;;7.00;57.60;;;;;;4979119;28;20033;-72
2023/03/28 06:07:20;;;;;;;5.63;3.15;;;7.00;57.40;;;;;;4996076;28;20022;-73
2023/03/28 06:09:47;;;;;;;12.38;3.10;;;7.00;57.20;;;;;;4996365;28;20383;-73
2023/03/28 06:12:12;;;;;;;5.97;2.78;;;7.00;57.40;;;;;;4996719;28;20022;-72
2023/03/28 06:14:38;;;;;;;4.38;2.70;;;7.10;57.60;;;;;;4996233;28;20538;-73
2023/03/28 06:17:06;;;;;;;5.63;2.97;;;7.10;57.50;;;;;;4996321;28;20026;-72
2023/03/28 06:19:32;;;;;;;4.63;2.72;;;7.20;57.30;;;;;;4978851;28;20420;-73
2023/03/28 06:21:57;;;;;;;5.07;3.28;;;7.20;56.80;;;;;;4996316;28;20077;-73
2023/03/28 06:24:23;;;;;;;6.65;2.70;;;7.20;56.30;;;;;;4996095;28;20030;-73
2023/03/28 06:26:49;;;;;;;8.77;3.28;;;7.30;56.40;;;;;;4978591;28;20439;-73
2023/03/28 06:29:15;;;;;;;6.10;2.63;;;7.30;56.00;;;;;;4996081;28;20398;-74
2023/03/28 06:31:41;;;;;;;6.50;3.17;;;7.40;56.00;;;;;;4978811;28;20038;-74
2023/03/28 06:34:07;;;;;;;8.82;3.50;;;7.40;56.00;;;;;;4995286;28;20069;-73
2023/03/28 06:36:32;;;;;;;3.72;2.47;;;7.50;55.70;;;;;;4995964;28;20045;-73
2023/03/28 06:39:00;;;;;;;13.75;3.17;;;7.40;54.90;;;;;;4996349;28;20022;-73
2023/03/28 06:41:26;;;;;;;10.50;3.50;;;7.50;55.30;;;;;;4996181;28;20030;-73
2023/03/28 06:43:52;;;;;;;8.80;2.83;;;7.50;54.70;;;;;;4996053;28;20036;-73
2023/03/28 06:46:17;;;;;;;11.27;2.63;;;7.50;54.60;;;;;;4995969;28;20093;-73
2023/03/28 06:48:44;;;;;;;4.25;2.22;;;7.50;54.60;;;;;;4996157;28;20053;-73
2023/03/28 06:51:11;;;;;;;10.82;2.88;;;7.50;54.70;;;;;;4996024;28;20033;-73
2023/03/28 06:53:37;;;;;;;10.45;3.13;;;7.60;54.40;;;;;;4996089;28;20053;-74
2023/03/28 06:56:05;;;;;;;7.63;2.47;;;7.70;54.10;;;;;;4977800;28;20069;-73
2023/03/28 06:58:31;;;;;;;6.10;2.67;;;7.80;53.90;;;;;;4995918;28;20125;-73
2023/03/28 07:01:00;;;;;;;7.90;2.75;;;7.90;53.80;;;;;;4995856;28;20030;-73
2023/03/28 07:03:26;;;;;;;5.40;2.50;;;8.00;53.00;;;;;;4995377;28;20440;-73
2023/03/28 07:05:52;;;;;;;9.35;3.35;;;8.10;53.20;;;;;;4978230;28;20026;-74
2023/03/28 07:08:17;;;;;;;10.93;2.53;;;8.20;53.20;;;;;;4995610;28;20026;-74
2023/03/28 07:10:43;;;;;;;8.38;3.03;;;8.20;52.90;;;;;;4978264;28;20387;-73
2023/03/28 07:13:10;;;;;;;14.23;2.65;;;8.10;52.30;;;;;;4995986;28;20468;-74
2023/03/28 07:15:36;;;;;;;8.38;2.60;;;8.10;52.10;;;;;;4995017;28;20030;-73
2023/03/28 07:18:02;;;;;;;6.60;2.78;;;8.10;52.60;;;;;;4995373;28;20476;-73
2023/03/28 07:20:28;;;;;;;6.25;2.88;;;8.10;52.50;;;;;;4975534;28;20130;-73
2023/03/28 07:22:53;;;;;;;7.78;2.40;;;8.10;52.70;;;;;;4958691;28;20539;-73
2023/03/28 07:25:19;;;;;;;9.43;2.75;;;8.20;52.60;;;;;;4981857;28;20023;-73
2023/03/28 07:27:45;;;;;;;6.60;2.25;;;8.20;52.00;;;;;;4995591;28;20022;-73
2023/03/28 07:30:11;;;;;;;6.25;2.40;;;8.20;52.30;;;;;;4995371;28;20034;-74
2023/03/28 07:32:37;;;;;;;10.05;2.65;;;8.30;52.30;;;;;;4995133;28;20022;-73
2023/03/28 07:35:05;;;;;;;8.18;2.25;;;8.30;51.90;;;;;;4977321;28;20053;-73
2023/03/28 07:37:31;;;;;;;7.55;2.30;;;8.40;51.70;;;;;;4994890;28;20022;-76
2023/03/28 07:39:57;;;;;;;5.28;2.35;;;8.40;51.20;;;;;;4994728;28;20105;-73
2023/03/28 07:42:23;;;;;;;7.85;2.90;;;8.40;51.30;;;;;;4994716;28;20106;-74
2023/03/28 07:44:49;;;;;;;6.65;2.92;;;8.50;51.40;;;;;;4993937;28;20030;-74
2023/03/28 07:47:17;;;;;;;5.97;2.60;;;8.50;51.00;;;;;;4995175;28;20077;-73
2023/03/28 07:49:44;;;;;;;12.60;3.40;;;8.50;50.70;;;;;;4995198;28;20439;-73
2023/03/28 07:52:10;;;;;;;8.15;2.70;;;8.60;50.80;;;;;;4994819;28;20041;-73
2023/03/28 07:54:37;;;;;;;11.75;3.22;;;8.60;50.80;;;;;;4994853;28;20030;-74
2023/03/28 07:57:03;;;;;;;6.88;2.72;;;8.70;50.70;;;;;;4994673;28;20030;-73
2023/03/28 07:59:29;;;;;;;9.93;2.60;;;8.70;50.80;;;;;;4977098;28;20430;-73
2023/03/28 08:01:54;;;;;;;6.03;2.47;;;8.80;51.00;;;;;;4994347;28;20023;-73
2023/03/28 08:04:20;;;;;;;8.45;3.08;;;8.80;51.00;;;;;;4975245;28;20019;-73
2023/03/28 08:06:46;;;;;;;9.30;2.88;;;8.90;51.00;;;;;;4975130;28;20476;-74
2023/03/28 08:09:14;;;;;;;6.05;2.90;;;8.90;50.90;;;;;;4975051;28;20034;-73
2023/03/28 08:11:42;;;;;;;5.30;2.40;;;9.00;51.10;;;;;;4975071;28;20077;-74
2023/03/28 08:14:11;;;;;;;10.35;2.70;;;9.00;50.20;;;;;;4975155;28;20027;-74
2023/03/28 08:16:38;;;;;;;5.43;2.72;;;9.00;50.70;;;;;;4974983;28;20165;-74
2023/03/28 08:19:04;;;;;;;8.88;3.45;;;9.10;50.80;;;;;;4973803;28;20026;-74
2023/03/28 08:21:30;;;;;;;8.52;2.78;;;9.10;50.00;;;;;;4974732;28;20046;-74
2023/03/28 08:23:57;;;;;;;9.38;3.05;;;9.10;49.80;;;;;;4974983;28;20023;-74
2023/03/28 08:26:24;;;;;;;3.95;2.35;;;9.20;50.10;;;;;;4990180;28;20033;-73
2023/03/28 08:28:53;;;;;;;11.13;3.28;;;9.30;50.20;;;;;;4994284;28;20048;-73
2023/03/28 08:31:22;;;;;;;9.73;3.60;;;9.30;49.80;;;;;;4994304;28;20023;-74
2023/03/28 08:33:51;;;;;;;6.60;2.55;;;9.30;49.00;;;;;;4994076;28;20038;-73
2023/03/28 08:36:18;;;;;;;12.10;3.10;;;9.40;48.70;;;;;;4994089;28;20045;-73
2023/03/28 08:38:45;;;;;;;9.43;3.17;;;9.40;48.80;;;;;;4976741;28;20506;-74
2023/03/28 08:41:24;;;;;;;11.10;3.28;;;9.50;48.60;;;;;;4994014;28;20035;-74
2023/03/28 08:44:11;;;;;;;4.50;2.33;;;9.40;47.80;;;;;;4976735;28;20050;-74
2023/03/28 08:46:40;;;;;;;7.18;2.78;;;9.50;49.00;;;;;;4976694;28;20030;-73
2023/03/28 08:49:14;;;;;;;6.93;2.92;;;9.50;47.70;;;;;;4994085;28;20026;-73
2023/03/28 08:51:45;;;;;;;6.57;2.42;;;9.50;47.80;;;;;;4994055;28;20034;-73
2023/03/28 08:54:32;;;;;;;10.02;3.28;;;9.60;47.80;;;;;;4994013;28;20530;-74
2023/03/28 08:57:01;;;;;;;10.25;2.35;;;9.50;46.70;;;;;;4985973;28;20058;-74
2023/03/28 09:00:09;;;;;;;7.40;3.15;;;9.60;47.60;;;;;;4976467;28;20037;-74
2023/03/28 09:02:34;;;;;;;4.65;2.45;;;9.60;47.20;;;;;;4993918;28;20019;-73
2023/03/28 09:05:01;;;;;;;6.65;2.55;;;9.70;47.30;;;;;;4993733;28;20530;-74
2023/03/28 09:07:33;;;;;;;7.70;2.60;;;9.80;46.60;;;;;;4993782;28;20050;-74
2023/03/28 09:10:08;;;;;;;7.72;2.65;;;9.70;45.80;;;;;;4993815;28;20076;-74
2023/03/28 09:12:50;;;;;;;7.10;2.60;;;9.70;45.80;;;;;;4993893;28;20563;-73
2023/03/28 09:15:54;;;;;;;10.30;2.75;;;9.70;45.90;;;;;;4976107;28;20439;-74
2023/03/28 09:18:53;;;;;;;4.57;1.83;;;9.80;46.30;;;;;;4896015;29;20043;-74
2023/03/28 09:21:40;;;;;;;9.88;2.22;;;9.90;46.90;;;;;;4888112;29;20088;-74
2023/03/28 09:24:12;;;;;;;5.15;2.30;;;9.90;46.30;;;;;;4877261;29;20111;-74
2023/03/28 09:27:09;;;;;;;9.40;2.58;;;10.00;45.50;;;;;;4890826;29;20415;-74
2023/03/28 09:29:38;;;;;;;7.57;2.28;;;10.00;45.00;;;;;;4877444;29;20452;-74
2023/03/28 09:32:18;;;;;;;5.70;2.05;;;10.10;44.80;;;;;;4892727;29;20032;-77
2023/03/28 09:34:48;;;;;;;10.23;2.22;;;10.20;44.70;;;;;;4877030;29;20140;-75
2023/03/28 09:37:36;;;;;;;10.30;2.47;;;10.20;44.20;;;;;;4877204;29;20044;-75
2023/03/28 09:40:31;;;;;;;7.97;2.00;;;10.10;43.40;;;;;;4877246;29;20422;-76
2023/03/28 09:43:00;;;;;;;;;;;10.20;44.20;;;;;;4877859;29;20041;-75
2023/03/28 09:45:46;;;;;;;7.55;2.08;;;10.30;45.30;;;;;;4877158;29;19931;-74
2023/03/28 09:48:20;;;;;;;6.03;2.10;;;10.40;43.80;;;;;;4877400;29;20554;-76
2023/03/28 09:50:45;;;;;;;4.57;1.90;;;10.50;43.70;;;;;;4877346;29;20090;-74
2023/03/28 09:53:21;;;;;;;4.50;1.95;;;10.50;42.90;;;;;;4877034;29;20064;-75
2023/03/28 09:55:47;;;;;;;6.63;1.70;;;10.60;42.80;;;;;;4961452;28;20110;-75
2023/03/28 09:58:13;;;;;;;4.28;1.50;;;10.60;42.50;;;;;;4993533;28;20022;-75
2023/03/28 10:00:49;;;;;;;9.68;2.80;;;10.70;42.50;;;;;;4993595;28;20379;-75
2023/03/28 10:03:34;;;;;;;4.95;1.83;;;10.70;42.20;;;;;;4975863;28;20018;-75
2023/03/28 10:06:18;;;;;;;6.88;1.95;;;10.80;42.50;;;;;;4975576;28;20037;-74
2023/03/28 10:08:44;;;;;;;7.07;1.55;;;10.90;42.00;;;;;;4995674;28;20030;-76
2023/03/28 10:11:21;;;;;;;5.85;1.67;;;10.90;41.20;;;;;;4996914;28;20491;-75
2023/03/28 10:13:49;;;;;;;4.93;1.70;;;10.90;41.60;;;;;;4996796;28;20045;-76
2023/03/28 10:16:24;;;;;;;3.95;1.92;;;10.90;41.60;;;;;;4996718;28;20109;-75
2023/03/28 10:18:50;;;;;;;10.60;1.95;;;10.90;41.00;;;;;;4996785;28;20101;-75
2023/03/28 10:21:21;;;;;;;4.05;1.70;;;10.70;41.00;;;;;;4996578;28;20104;-74
2023/03/28 10:24:15;;;;;;;6.38;2.08;;;10.50;43.10;;;;;;4996732;28;20022;-75
2023/03/28 10:26:41;;;;;;;7.10;1.50;;;10.30;43.60;;;;;;4973892;28;20608;-75
2023/03/28 10:29:09;;;;;;;6.90;2.00;;;10.30;43.50;;;;;;4959762;28;20068;-75
2023/03/28 10:31:38;;;;;;;12.32;2.35;;;10.00;42.80;;;;;;4976953;28;20038;-74
2023/03/28 10:34:04;;;;;;;10.43;2.42;;;10.00;43.20;;;;;;4976786;28;20043;-76
2023/03/28 10:36:48;;;;;;;4.75;2.13;;;9.90;42.90;;;;;;4963235;28;20030;-75
2023/03/28 10:39:27;;;;;;;5.30;1.75;;;9.80;42.90;;;;;;4979014;28;20069;-76
2023/03/28 10:41:58;;;;;;;5.55;1.60;;;9.80;43.00;;;;;;4996322;28;20030;-75
2023/03/28 10:44:35;;;;;;;3.58;1.70;;;9.90;43.10;;;;;;4996263;28;20041;-75
2023/03/28 10:47:10;;;;;;;6.30;1.90;;;9.90;43.00;;;;;;4978742;28;20026;-75
2023/03/28 10:49:46;;;;;;;10.73;2.33;;;10.10;42.80;;;;;;4996174;28;20022;-76
2023/03/28 10:52:53;;;;;;;6.30;2.13;;;10.10;42.70;;;;;;4996107;28;20031;-75
2023/03/28 10:55:23;;;;;;;7.60;1.52;;;10.10;42.60;;;;;;4982870;28;20483;-75
2023/03/28 10:57:58;;;;;;;7.32;1.80;;;10.20;42.60;;;;;;4996076;28;20023;-75
2023/03/28 11:01:12;;;;;;;9.15;2.03;;;10.20;43.10;;;;;;4995954;28;20027;-75
2023/03/28 11:04:12;;;;;;;7.72;1.85;;;10.20;44.60;;;;;;4922580;28;20045;-76
2023/03/28 11:06:57;;;;;;;6.57;2.45;;;10.20;45.20;;;;;;4995804;28;20026;-75
2023/03/28 11:09:32;;;;;;;4.65;1.92;;;10.20;45.90;;;;;;4995975;28;20105;-75
2023/03/28 11:12:10;;;;;;;3.13;1.35;;;10.20;46.80;;;;;;4995749;28;20081;-75
2023/03/28 11:14:44;;;;;;;13.05;2.53;;;10.30;46.90;;;;;;4978155;28;20369;-76
2023/03/28 11:17:31;;;;;;;11.95;2.00;;;10.40;46.60;;;;;;4978116;28;20030;-75
2023/03/28 11:20:25;;;;;;;6.55;1.95;;;10.40;44.70;;;;;;4995590;28;20048;-75
2023/03/28 11:23:09;;;;;;;7.82;1.55;;;10.40;44.20;;;;;;4995470;28;20046;-75
2023/03/28 11:25:43;;;;;;;6.45;1.98;;;10.50;44.30;;;;;;4995269;28;20431;-75
2023/03/28 11:28:24;;;;;;;8.15;1.88;;;10.60;44.60;;;;;;4995497;28;20030;-76
2023/03/28 11:30:55;;;;;;;5.28;1.52;;;10.70;44.30;;;;;;4995583;28;20030;-75
2023/03/28 11:33:32;;;;;;;5.65;1.67;;;10.70;43.70;;;;;;4994957;28;20031;-76
2023/03/28 11:36:15;;;;;;;5.55;1.42;;;10.80;43.70;;;;;;4995074;28;20118;-76
2023/03/28 11:38:50;;;;;;;6.70;1.52;;;10.70;42.60;;;;;;4995201;28;20142;-75
2023/03/28 11:41:23;;;;;;;12.35;1.65;;;10.70;42.20;;;;;;4977948;28;20387;-75
2023/03/28 11:44:13;;;;;;;7.63;2.40;;;10.70;42.10;;;;;;4995299;28;20102;-75
2023/03/28 11:46:55;;;;;;;6.32;1.60;;;10.70;42.90;;;;;;4977592;28;20391;-76
2023/03/28 11:49:39;;;;;;;5.80;1.73;;;10.60;42.30;;;;;;4994999;28;20034;-75
2023/03/28 11:52:15;;;;;;;6.70;1.67;;;10.70;42.40;;;;;;4977467;28;20108;-74
2023/03/28 11:54:47;;;;;;;5.40;1.45;;;10.70;42.40;;;;;;4994581;28;20061;-75
2023/03/28 11:57:23;;;;;;;12.23;2.47;;;10.70;41.60;;;;;;4994695;28;20026;-75
2023/03/28 11:59:56;;;;;;;10.52;1.63;;;10.70;41.90;;;;;;4977386;28;20387;-75
2023/03/28 12:02:46;;;;;;;4.40;1.30;;;10.60;42.90;;;;;;4994677;28;20026;-75
2023/03/28 12:05:37;;;;;;;5.50;1.70;;;10.40;45.40;;;;;;4994558;28;20049;-76
2023/03/28 12:08:19;;;;;;;6.28;2.08;;;10.20;46.70;;;;;;4994598;28;20081;-75
2023/03/28 12:10:50;;;;;;;4.20;1.42;;;10.10;47.20;;;;;;4994476;28;20101;-75
2023/03/28 12:13:27;;;;;;;5.25;1.27;;;10.00;48.20;;;;;;4994780;28;20542;-75
2023/03/28 12:16:00;;;;;;;5.80;1.55;;;10.00;48.30;;;;;;4994353;28;20033;-76
2023/03/28 12:18:37;;;;;;;7.20;1.80;;;9.90;48.40;;;;;;4994386;28;20015;-75
2023/03/28 12:21:25;;;;;;;7.25;2.08;;;9.90;48.40;;;;;;4976844;28;20057;-75
2023/03/28 12:24:00;;;;;;;7.88;1.60;;;9.90;47.00;;;;;;4976955;28;20045;-76
2023/03/28 12:26:35;;;;;;;4.75;1.63;;;9.90;45.90;;;;;;4976612;28;20169;-75
2023/03/28 12:29:24;;;;;;;8.50;1.73;;;9.90;45.30;;;;;;4976774;28;20113;-75
2023/03/28 12:32:04;;;;;;;11.57;2.35;;;9.90;44.20;;;;;;4993721;28;20022;-76
2023/03/28 12:35:14;;;;;;;7.20;1.90;;;9.90;44.30;;;;;;4994040;28;20054;-74
2023/03/28 12:38:01;;;;;;;4.10;1.20;;;10.00;44.60;;;;;;4896487;29;20040;-75
2023/03/28 12:40:36;;;;;;;6.43;1.73;;;10.10;43.90;;;;;;4896523;29;20495;-74
2023/03/28 12:43:05;;;;;;;8.65;1.70;;;10.40;43.80;;;;;;4966999;28;20073;-76
2023/03/28 12:45:44;;;;;;;8.18;1.65;;;10.50;43.20;;;;;;4976899;28;20435;-75
2023/03/28 12:48:21;;;;;;;3.83;1.42;;;10.70;42.50;;;;;;4993971;28;20026;-74
2023/03/28 12:51:16;;;;;;;4.40;1.77;;;10.80;41.80;;;;;;4976693;28;20376;-75
2023/03/28 12:54:04;;;;;;;;;;;10.90;41.40;;;;;;4957198;28;20450;-76
2023/03/28 12:56:30;;;;;;;2.80;1.10;;;11.10;42.70;;;;;;4969817;28;19968;-75
2023/03/28 12:58:56;;;;;;;5.78;1.20;;;11.20;41.80;;;;;;4993787;28;20415;-75
2023/03/28 13:01:40;;;;;;;6.88;1.52;;;11.30;41.60;;;;;;4993860;28;20109;-75
2023/03/28 13:04:22;;;;;;;7.72;1.80;;;11.20;41.00;;;;;;4994049;28;20023;-76
2023/03/28 13:07:11;;;;;;;7.97;1.50;;;11.20;40.90;;;;;;4993816;28;20450;-75
2023/03/28 13:09:58;;;;;;;16.98;1.55;;;11.20;40.20;;;;;;4993697;28;20050;-75
2023/03/28 13:12:47;;;;;;;4.45;1.45;;;11.10;39.80;;;;;;4993745;28;20034;-76
2023/03/28 13:15:12;;;;;;;6.18;1.38;;;11.20;40.00;;;;;;4993621;28;20102;-74
2023/03/28 13:18:04;;;;;;;7.90;1.25;;;11.30;39.70;;;;;;4993744;28;20064;-75
2023/03/28 13:20:30;;;;;;;5.45;1.08;;;11.30;39.30;;;;;;4993129;28;20479;-74
2023/03/28 13:23:00;;;;;;;5.65;1.15;;;11.30;38.50;;;;;;4993935;28;20034;-75